Weather at Corunna Downs (WW II) [CLOSED]

Public forecast

Using degrees Celsius for public forecast. Weather courtesy of forecast.io.

Closest aviation weather report (METAR) to Corunna Downs (WW II)

Closest report is Port Hedland International Airport, 91.1 nm (168.8 km) NW.

2024/05/30 09:30 (retrieved 29 minutes ago)

YPPD 300930Z AUTO 02010KT 9999 // NCD 24/18 Q1015 RF000/0000

Closest aviation forecast (TAF) to Corunna Downs (WW II)

Closest forecast is Port Hedland International Airport, 91.1 nm (168.8 km) NW.

2024/05/30 06:36 (retrieved 3 hours ago)

TAF YPPD 300523Z 3006/3106 10008KT CAVOK FM300900 06008KT CAVOK FM301200 10006KT CAVOK FM301600 15008KT CAVOK FM310000 10016G26KT CAVOK FM310300 10014KT CAVOK